createdAt,value
2018-09-20T00:02:07.636Z,85.10
2018-09-20T00:04:36.148Z,84.90
2018-09-20T00:07:04.608Z,84.90
2018-09-20T00:09:33.117Z,85.10
2018-09-20T00:12:01.491Z,85.10
2018-09-20T00:14:30.017Z,85.70
2018-09-20T00:16:59.034Z,85.30
2018-09-20T00:19:27.435Z,85.00
2018-09-20T00:21:56.397Z,85.40
2018-09-20T00:24:24.976Z,85.40
2018-09-20T00:26:53.379Z,85.40
2018-09-20T00:29:29.558Z,85.40
2018-09-20T00:31:58.180Z,85.30
2018-09-20T00:34:26.608Z,85.30
2018-09-20T00:36:56.545Z,85.30
2018-09-20T00:39:24.985Z,85.40
2018-09-20T00:41:53.418Z,85.90
2018-09-20T00:44:21.844Z,86.40
2018-09-20T00:46:50.340Z,87.10
2018-09-20T00:49:19.062Z,87.00
2018-09-20T00:51:47.463Z,87.00
2018-09-20T00:54:17.143Z,86.80
2018-09-20T00:56:45.576Z,87.00
2018-09-20T00:59:14.100Z,87.00
2018-09-20T01:01:46.487Z,87.10
2018-09-20T01:04:15.614Z,86.70
2018-09-20T01:06:44.987Z,86.70
2018-09-20T01:09:13.467Z,86.50
2018-09-20T01:11:41.879Z,86.30
2018-09-20T01:14:10.683Z,86.30
2018-09-20T01:16:39.099Z,86.10
2018-09-20T01:19:07.500Z,86.50
2018-09-20T01:21:35.931Z,86.10
2018-09-20T01:24:04.719Z,86.20
2018-09-20T01:26:33.153Z,86.50
2018-09-20T01:29:01.608Z,86.70
2018-09-20T01:31:30.045Z,87.50
2018-09-20T01:33:58.461Z,87.30
2018-09-20T01:36:27.097Z,87.80
2018-09-20T01:38:55.777Z,87.60
2018-09-20T01:41:24.252Z,87.60
2018-09-20T01:43:52.649Z,87.80
2018-09-20T01:46:23.037Z,86.90
2018-09-20T01:48:54.132Z,87.40
2018-09-20T01:51:22.561Z,87.30
2018-09-20T01:53:51.284Z,87.60
2018-09-20T01:56:19.772Z,87.80
2018-09-20T01:58:48.216Z,87.90
2018-09-20T02:01:16.646Z,88.00
2018-09-20T02:03:45.521Z,87.70
2018-09-20T02:06:13.940Z,87.90
2018-09-20T02:08:44.064Z,87.30
2018-09-20T02:11:12.808Z,87.20
2018-09-20T02:17:04.323Z,87.40
2018-09-20T02:19:32.475Z,87.40
2018-09-20T02:24:41.039Z,87.30
2018-09-20T02:27:09.199Z,87.30
2018-09-20T02:29:37.367Z,87.30
2018-09-20T02:32:05.528Z,88.40
2018-09-20T02:34:33.707Z,89.00
2018-09-20T02:37:02.206Z,88.50
2018-09-20T02:39:30.592Z,88.40
2018-09-20T02:41:59.081Z,88.50
2018-09-20T02:44:27.756Z,88.50
2018-09-20T02:46:56.196Z,89.40
2018-09-20T02:49:25.444Z,89.40
2018-09-20T02:51:53.861Z,88.60
2018-09-20T02:54:22.296Z,88.20
2018-09-20T02:56:50.828Z,88.00
2018-09-20T03:01:58.611Z,88.00
2018-09-20T03:04:28.048Z,87.90
2018-09-20T03:06:57.157Z,87.80
2018-09-20T03:09:26.052Z,88.20
2018-09-20T03:11:54.760Z,88.40
2018-09-20T03:14:25.102Z,88.20
2018-09-20T03:16:53.669Z,87.90
2018-09-20T03:19:22.765Z,87.90
2018-09-20T03:21:51.421Z,87.80
2018-09-20T03:24:19.809Z,88.00
2018-09-20T03:26:48.218Z,88.70
2018-09-20T03:29:17.408Z,88.80
2018-09-20T03:31:46.216Z,89.10
2018-09-20T03:34:14.629Z,89.60
2018-09-20T03:36:43.382Z,89.10
2018-09-20T03:39:12.450Z,88.90
2018-09-20T03:41:41.465Z,88.80
2018-09-20T03:44:09.916Z,89.10
2018-09-20T03:46:38.412Z,89.10
2018-09-20T03:49:08.168Z,89.00
2018-09-20T03:51:36.581Z,89.50
2018-09-20T03:54:05.388Z,88.70
2018-09-20T03:56:34.009Z,88.50
2018-09-20T03:59:02.458Z,88.30
2018-09-20T04:01:30.876Z,88.40
2018-09-20T04:03:59.624Z,88.70
2018-09-20T04:06:28.096Z,88.60
2018-09-20T04:08:56.532Z,89.00
2018-09-20T04:11:25.203Z,89.30
2018-09-20T04:13:54.003Z,89.20
2018-09-20T04:16:22.885Z,89.80
2018-09-20T04:18:52.182Z,89.70
2018-09-20T04:21:24.940Z,89.80
2018-09-20T04:26:44.622Z,89.00
2018-09-20T04:29:12.983Z,88.80
2018-09-20T04:31:41.972Z,88.80
2018-09-20T04:34:11.021Z,89.00
2018-09-20T04:40:47.336Z,89.20
2018-09-20T04:43:15.483Z,89.20
2018-09-20T04:45:46.033Z,89.20
2018-09-20T04:48:14.492Z,89.10
2018-09-20T04:50:42.924Z,89.70
2018-09-20T04:53:11.528Z,88.70
2018-09-20T04:55:40.335Z,88.50
2018-09-20T04:58:08.897Z,88.70
2018-09-20T05:00:37.328Z,88.80
2018-09-20T05:03:06.418Z,88.90
2018-09-20T05:05:34.904Z,88.80
2018-09-20T05:08:03.752Z,88.70
2018-09-20T05:13:08.883Z,88.30
2018-09-20T05:15:37.301Z,88.20
2018-09-20T05:18:06.105Z,88.20
2018-09-20T05:20:34.552Z,88.40
2018-09-20T05:23:03.011Z,88.00
2018-09-20T05:25:31.799Z,86.90
2018-09-20T05:28:00.216Z,85.50
2018-09-20T05:30:28.949Z,84.20
2018-09-20T05:32:57.388Z,83.40
2018-09-20T05:35:26.090Z,81.80
2018-09-20T05:37:54.890Z,79.70
2018-09-20T05:40:23.374Z,77.10
2018-09-20T05:42:52.013Z,74.50
2018-09-20T05:45:20.566Z,71.20
2018-09-20T05:47:49.109Z,69.00
2018-09-20T05:50:18.069Z,66.00
2018-09-20T05:52:46.510Z,63.70
2018-09-20T05:55:15.077Z,61.40
2018-09-20T05:57:46.980Z,59.30
2018-09-20T06:00:15.713Z,58.20
2018-09-20T06:02:44.180Z,56.30
2018-09-20T06:05:12.632Z,55.10
2018-09-20T06:07:41.237Z,54.30
2018-09-20T06:10:10.056Z,53.00
2018-09-20T06:12:38.456Z,51.50
2018-09-20T06:15:06.889Z,50.00
2018-09-20T06:17:36.585Z,48.40
2018-09-20T06:20:05.040Z,47.00
2018-09-20T06:22:33.469Z,45.30
2018-09-20T06:25:02.065Z,44.30
2018-09-20T06:27:30.531Z,43.60
2018-09-20T06:29:58.937Z,42.50
2018-09-20T06:32:27.665Z,41.40
2018-09-20T06:34:56.114Z,40.10
2018-09-20T06:37:24.477Z,39.40
2018-09-20T06:39:54.143Z,39.10
2018-09-20T06:42:22.600Z,39.70
2018-09-20T06:44:51.749Z,39.70
2018-09-20T06:47:20.152Z,39.30
2018-09-20T06:49:48.790Z,38.40
2018-09-20T06:52:17.291Z,37.70
2018-09-20T06:54:45.756Z,36.60
2018-09-20T06:57:14.205Z,35.70
2018-09-20T06:59:42.992Z,34.70
2018-09-20T07:02:12.032Z,33.90
2018-09-20T07:04:40.313Z,33.60
2018-09-20T07:07:08.677Z,33.20
2018-09-20T07:09:37.757Z,32.40
2018-09-20T07:12:06.199Z,31.50
2018-09-20T07:14:34.920Z,31.20
2018-09-20T07:17:06.696Z,30.50
2018-09-20T07:19:35.534Z,30.10
2018-09-20T07:22:03.957Z,29.70
2018-09-20T07:24:32.412Z,29.20
2018-09-20T07:27:00.784Z,28.80
2018-09-20T07:29:35.089Z,28.30
2018-09-20T07:32:04.344Z,28.40
2018-09-20T07:34:32.896Z,27.80
2018-09-20T07:37:01.385Z,27.20
2018-09-20T07:39:29.664Z,26.70
2018-09-20T07:41:58.117Z,27.10
2018-09-20T07:44:26.470Z,27.10
2018-09-20T07:46:55.061Z,27.60
2018-09-20T07:49:23.460Z,27.70
2018-09-20T07:51:52.200Z,27.50
2018-09-20T07:54:20.741Z,28.30
2018-09-20T07:56:49.198Z,28.00
2018-09-20T07:59:17.551Z,28.30
2018-09-20T08:01:46.244Z,28.40
2018-09-20T08:04:15.153Z,29.10
2018-09-20T08:06:43.643Z,29.00
2018-09-20T08:09:13.188Z,29.10
2018-09-20T08:11:41.776Z,29.50
2018-09-20T08:14:10.675Z,29.80
2018-09-20T08:16:40.665Z,29.80
2018-09-20T08:19:09.432Z,29.90
2018-09-20T08:21:40.091Z,29.80
2018-09-20T08:24:08.399Z,29.50
2018-09-20T08:26:37.425Z,29.50
2018-09-20T08:29:06.242Z,29.40
2018-09-20T08:31:34.653Z,29.80
2018-09-20T08:34:03.102Z,29.90
2018-09-20T08:36:33.068Z,29.70
2018-09-20T08:39:02.589Z,30.00
2018-09-20T08:41:31.048Z,30.50
2018-09-20T08:43:59.432Z,30.50
2018-09-20T08:46:28.152Z,30.40
2018-09-20T08:48:56.633Z,29.80
2018-09-20T08:51:25.078Z,30.30
2018-09-20T08:53:53.819Z,30.00
2018-09-20T08:56:23.463Z,29.70
2018-09-20T08:58:52.605Z,29.10
2018-09-20T09:01:21.101Z,28.90
2018-09-20T09:03:49.502Z,28.70
2018-09-20T09:06:17.909Z,28.00
2018-09-20T09:08:46.445Z,27.10
2018-09-20T09:11:14.966Z,27.50
2018-09-20T09:13:43.680Z,27.20
2018-09-20T09:16:12.153Z,27.50
2018-09-20T09:18:41.361Z,26.70
2018-09-20T09:21:09.727Z,25.70
2018-09-20T09:23:38.144Z,25.80
2018-09-20T09:26:06.565Z,25.70
2018-09-20T09:28:35.729Z,25.70
2018-09-20T09:31:04.166Z,25.80
2018-09-20T09:33:32.637Z,26.10
2018-09-20T09:36:01.060Z,26.50
2018-09-20T09:38:29.462Z,26.30
2018-09-20T09:40:57.860Z,26.40
2018-09-20T09:43:26.456Z,26.70
2018-09-20T09:45:54.913Z,26.70
2018-09-20T09:48:23.746Z,26.80
2018-09-20T09:50:55.689Z,27.00
2018-09-20T09:53:26.916Z,27.30
2018-09-20T09:55:55.608Z,26.80
2018-09-20T09:58:23.992Z,26.90
2018-09-20T10:00:54.653Z,27.60
2018-09-20T10:06:01.934Z,28.60
2018-09-20T10:08:30.501Z,28.50
2018-09-20T10:10:59.151Z,28.80
2018-09-20T10:13:27.982Z,29.20
2018-09-20T10:15:56.468Z,29.50
2018-09-20T10:18:24.881Z,29.70
2018-09-20T10:20:55.380Z,29.40
2018-09-20T10:23:24.276Z,29.70
2018-09-20T10:25:52.689Z,30.10
2018-09-20T10:28:21.129Z,30.40
2018-09-20T10:30:49.789Z,31.60
2018-09-20T10:33:18.288Z,32.30
2018-09-20T10:35:47.063Z,33.20
2018-09-20T10:38:15.482Z,33.40
2018-09-20T10:40:43.865Z,33.30
2018-09-20T10:43:12.325Z,33.10
2018-09-20T10:45:40.775Z,32.30
2018-09-20T10:48:09.628Z,32.80
2018-09-20T10:50:38.023Z,33.00
2018-09-20T10:53:06.389Z,33.60
2018-09-20T10:55:35.441Z,32.40
2018-09-20T10:58:03.840Z,32.40
2018-09-20T11:00:32.334Z,32.60
2018-09-20T11:03:01.439Z,33.60
2018-09-20T11:05:29.896Z,34.30
2018-09-20T11:07:58.312Z,35.80
2018-09-20T11:10:27.552Z,36.30
2018-09-20T11:12:56.153Z,36.70
2018-09-20T11:15:24.584Z,36.40
2018-09-20T11:17:53.069Z,36.90
2018-09-20T11:20:21.839Z,36.60
2018-09-20T11:22:50.588Z,37.60
2018-09-20T11:27:57.599Z,38.70
2018-09-20T11:30:25.759Z,39.60
2018-09-20T11:32:54.015Z,39.30
2018-09-20T11:35:22.299Z,39.50
2018-09-20T11:37:50.754Z,39.00
2018-09-20T11:40:18.908Z,38.30
2018-09-20T11:42:47.108Z,37.40
2018-09-20T11:45:15.315Z,36.60
2018-09-20T11:47:43.499Z,37.00
2018-09-20T11:50:13.162Z,37.40
2018-09-20T11:52:45.397Z,37.90
2018-09-20T11:55:13.760Z,38.30
2018-09-20T11:57:42.184Z,37.40
2018-09-20T12:00:12.585Z,37.50
2018-09-20T12:02:41.020Z,37.70
2018-09-20T12:05:09.441Z,36.70
2018-09-20T12:07:38.049Z,36.20
2018-09-20T12:10:06.481Z,37.10
2018-09-20T12:12:35.368Z,37.90
2018-09-20T12:15:04.013Z,38.70
2018-09-20T12:17:32.478Z,37.80
2018-09-20T12:20:01.079Z,38.00
2018-09-20T12:22:29.359Z,37.80
2018-09-20T12:24:59.195Z,38.10
2018-09-20T12:27:27.595Z,38.20
2018-09-20T12:29:56.905Z,38.40
2018-09-20T12:32:25.404Z,38.50
2018-09-20T12:34:53.804Z,38.20
2018-09-20T12:37:26.393Z,38.10
2018-09-20T12:39:54.788Z,37.90
2018-09-20T12:42:23.795Z,38.50
2018-09-20T12:44:52.997Z,39.30
2018-09-20T12:47:21.840Z,39.60
2018-09-20T12:49:50.383Z,40.80
2018-09-20T12:52:18.848Z,40.50
2018-09-20T12:54:47.645Z,40.40
2018-09-20T12:57:16.453Z,38.90
2018-09-20T12:59:45.284Z,39.50
2018-09-20T13:02:13.765Z,39.60
2018-09-20T13:04:42.139Z,40.50
2018-09-20T13:07:10.560Z,40.20
2018-09-20T13:09:38.961Z,41.10
2018-09-20T13:12:07.893Z,41.90
2018-09-20T13:14:36.323Z,42.80
2018-09-20T13:17:06.094Z,44.00
2018-09-20T13:19:36.677Z,42.20
2018-09-20T13:22:05.175Z,40.60
2018-09-20T13:24:33.661Z,40.80
2018-09-20T13:27:02.201Z,42.10
2018-09-20T13:29:30.799Z,39.70
2018-09-20T13:31:59.520Z,40.40
2018-09-20T13:34:28.380Z,40.50
2018-09-20T13:36:56.853Z,40.80
2018-09-20T13:39:25.802Z,40.70
2018-09-20T13:41:54.218Z,40.60
2018-09-20T13:44:22.697Z,41.60
2018-09-20T13:46:51.220Z,41.10
2018-09-20T13:49:21.418Z,41.00
2018-09-20T13:51:49.919Z,41.50
2018-09-20T13:54:18.353Z,41.40
2018-09-20T13:56:47.112Z,42.10
2018-09-20T13:59:15.604Z,42.80
2018-09-20T14:01:44.401Z,42.90
2018-09-20T14:04:13.128Z,43.20
2018-09-20T14:06:42.389Z,42.40
2018-09-20T14:09:11.916Z,42.30
2018-09-20T14:11:40.776Z,43.10
2018-09-20T14:14:10.227Z,43.20
2018-09-20T14:16:38.582Z,42.50
2018-09-20T14:19:07.594Z,42.20
2018-09-20T14:21:36.408Z,43.20
2018-09-20T14:24:04.848Z,43.70
2018-09-20T14:26:33.218Z,43.20
2018-09-20T14:29:01.712Z,43.10
2018-09-20T14:31:30.525Z,42.90
2018-09-20T14:33:58.920Z,42.80
2018-09-20T14:36:27.953Z,43.40
2018-09-20T14:38:56.713Z,43.20
2018-09-20T14:41:25.816Z,43.60
2018-09-20T14:43:54.465Z,44.50
2018-09-20T14:46:23.128Z,44.40
2018-09-20T14:48:51.622Z,44.20
2018-09-20T14:51:20.024Z,44.60
2018-09-20T14:53:48.716Z,45.10
2018-09-20T14:56:17.326Z,45.30
2018-09-20T14:58:47.537Z,46.20
2018-09-20T15:01:16.065Z,46.10
2018-09-20T15:03:44.464Z,46.40
2018-09-20T15:06:15.329Z,46.10
2018-09-20T15:08:43.717Z,46.30
2018-09-20T15:11:12.266Z,46.50
2018-09-20T15:13:40.633Z,46.30
2018-09-20T15:16:09.229Z,46.90
2018-09-20T15:18:37.595Z,46.50
2018-09-20T15:21:06.049Z,46.60
2018-09-20T15:23:35.222Z,46.70
2018-09-20T15:26:04.406Z,46.70
2018-09-20T15:28:32.805Z,47.40
2018-09-20T15:31:01.267Z,47.00
2018-09-20T15:33:29.692Z,47.20
2018-09-20T15:35:58.332Z,47.20
2018-09-20T15:38:26.705Z,47.60
2018-09-20T15:40:55.142Z,47.80
2018-09-20T15:43:23.485Z,47.60
2018-09-20T15:45:52.397Z,47.60
2018-09-20T15:48:21.010Z,48.20
2018-09-20T15:50:49.868Z,48.30
2018-09-20T15:53:18.940Z,48.00
2018-09-20T15:55:47.839Z,48.30
2018-09-20T15:58:16.623Z,49.00
2018-09-20T16:00:45.959Z,48.70
2018-09-20T16:03:14.413Z,48.70
2018-09-20T16:05:45.217Z,48.80
2018-09-20T16:08:13.864Z,48.60
2018-09-20T16:10:42.718Z,49.00
2018-09-20T16:13:13.932Z,49.10
2018-09-20T16:15:44.530Z,49.10
2018-09-20T16:18:16.423Z,49.90
2018-09-20T16:20:45.148Z,50.70
2018-09-20T16:23:15.013Z,50.90
2018-09-20T16:25:43.661Z,50.20
2018-09-20T16:28:19.722Z,51.20
2018-09-20T16:31:12.850Z,50.90
2018-09-20T16:34:24.943Z,51.60
2018-09-20T16:37:11.385Z,52.60
2018-09-20T16:39:42.156Z,52.50
2018-09-20T16:42:12.401Z,54.30
2018-09-20T16:44:40.808Z,54.30
2018-09-20T16:47:09.281Z,54.80
2018-09-20T16:49:39.517Z,55.20
2018-09-20T16:52:07.873Z,55.60
2018-09-20T16:54:38.164Z,56.10
2018-09-20T16:57:06.650Z,56.50
2018-09-20T16:59:35.374Z,57.00
2018-09-20T17:02:04.053Z,57.20
2018-09-20T17:04:34.194Z,57.40
2018-09-20T17:07:02.699Z,57.80
2018-09-20T17:09:31.196Z,58.10
2018-09-20T17:11:59.693Z,58.50
2018-09-20T17:14:28.368Z,58.80
2018-09-20T17:16:57.257Z,59.00
2018-09-20T17:22:04.368Z,59.40
2018-09-20T17:24:33.064Z,59.60
2018-09-20T17:27:01.807Z,59.80
2018-09-20T17:29:31.241Z,60.30
2018-09-20T17:31:59.929Z,60.40
2018-09-20T17:34:28.586Z,60.80
2018-09-20T17:36:58.364Z,61.10
2018-09-20T17:39:27.328Z,61.10
2018-09-20T17:41:56.572Z,62.00
2018-09-20T17:44:25.420Z,62.40
2018-09-20T17:46:54.195Z,63.40
2018-09-20T17:49:22.861Z,63.80
2018-09-20T17:51:55.085Z,64.00
2018-09-20T17:54:24.207Z,64.30
2018-09-20T17:56:53.402Z,64.40
2018-09-20T17:59:22.378Z,64.50
2018-09-20T18:01:51.045Z,64.80
2018-09-20T18:04:19.777Z,65.10
2018-09-20T18:06:48.473Z,65.30
2018-09-20T18:09:17.068Z,65.50
2018-09-20T18:11:46.176Z,65.80
2018-09-20T18:14:14.752Z,66.10
2018-09-20T18:16:44.211Z,66.10
2018-09-20T18:19:14.679Z,66.50
2018-09-20T18:21:43.523Z,67.20
2018-09-20T18:24:12.800Z,67.80
2018-09-20T18:26:41.557Z,68.10
2018-09-20T18:29:10.364Z,67.80
2018-09-20T18:31:39.548Z,68.20
2018-09-20T18:34:08.032Z,68.40
2018-09-20T18:36:36.500Z,68.70
2018-09-20T18:39:07.896Z,69.00
2018-09-20T18:41:36.335Z,69.70
2018-09-20T18:46:43.018Z,69.50
2018-09-20T18:49:11.437Z,69.80
2018-09-20T18:51:39.944Z,69.80
2018-09-20T18:54:08.429Z,70.10
2018-09-20T18:56:37.415Z,70.80
2018-09-20T18:59:05.702Z,70.80
2018-09-20T19:01:34.288Z,70.70
2018-09-20T19:04:02.947Z,71.00
2018-09-20T19:06:31.566Z,71.50
2018-09-20T19:09:00.630Z,71.40
2018-09-20T19:11:29.061Z,71.70
2018-09-20T19:13:57.549Z,71.60
2018-09-20T19:16:26.388Z,72.40
2018-09-20T19:18:54.779Z,72.90
2018-09-20T19:21:23.213Z,73.30
2018-09-20T19:23:52.217Z,73.30
2018-09-20T19:26:21.109Z,73.40
2018-09-20T19:28:49.569Z,73.20
2018-09-20T19:31:18.384Z,73.70
2018-09-20T19:33:47.712Z,74.20
2018-09-20T19:36:18.365Z,74.00
2018-09-20T19:38:46.958Z,74.00
2018-09-20T19:41:15.728Z,74.20
2018-09-20T19:43:44.293Z,74.60
2018-09-20T19:46:13.768Z,75.10
2018-09-20T19:48:42.208Z,74.90
2018-09-20T19:51:10.582Z,75.20
2018-09-20T19:53:39.252Z,75.00
2018-09-20T19:56:07.956Z,74.70
2018-09-20T19:58:37.626Z,74.60
2018-09-20T20:01:06.954Z,74.50
2018-09-20T20:03:35.429Z,74.70
2018-09-20T20:06:04.014Z,75.20
2018-09-20T20:08:32.437Z,75.60
2018-09-20T20:11:01.631Z,75.70
2018-09-20T20:13:30.138Z,76.20
2018-09-20T20:15:58.614Z,76.00
2018-09-20T20:18:28.125Z,76.30
2018-09-20T20:20:56.586Z,76.50
2018-09-20T20:23:25.440Z,76.40
2018-09-20T20:25:54.795Z,77.00
2018-09-20T20:28:25.640Z,77.20
2018-09-20T20:30:54.928Z,76.90
2018-09-20T20:33:23.360Z,76.90
2018-09-20T20:35:51.801Z,76.80
2018-09-20T20:38:20.402Z,77.20
2018-09-20T20:40:48.784Z,77.30
2018-09-20T20:43:17.865Z,78.10
2018-09-20T20:45:46.305Z,77.90
2018-09-20T20:48:16.375Z,77.80
2018-09-20T20:50:45.424Z,77.90
2018-09-20T20:53:13.877Z,78.10
2018-09-20T20:55:42.809Z,78.20
2018-09-20T20:58:12.233Z,78.00
2018-09-20T21:00:40.624Z,77.70
2018-09-20T21:03:09.484Z,78.10
2018-09-20T21:05:37.944Z,78.60
2018-09-20T21:08:06.684Z,78.50
2018-09-20T21:10:35.060Z,78.80
2018-09-20T21:13:03.456Z,78.80
2018-09-20T21:15:32.017Z,79.50
2018-09-20T21:20:54.785Z,79.60
2018-09-20T21:23:23.238Z,79.50
2018-09-20T21:28:29.304Z,79.40
2018-09-20T21:30:57.627Z,80.00
2018-09-20T21:33:25.843Z,80.10
2018-09-20T21:35:54.382Z,79.80
2018-09-20T21:38:22.804Z,80.30
2018-09-20T21:40:51.865Z,80.20
2018-09-20T21:43:20.492Z,80.20
2018-09-20T21:45:49.821Z,81.30
2018-09-20T21:48:18.604Z,80.70
2018-09-20T21:50:47.688Z,80.50
2018-09-20T21:53:16.465Z,80.20
2018-09-20T21:55:44.960Z,80.20
2018-09-20T21:58:15.560Z,80.50
2018-09-20T22:00:45.068Z,80.20
2018-09-20T22:03:13.449Z,80.50
2018-09-20T22:05:41.890Z,80.50
2018-09-20T22:08:10.880Z,81.50
2018-09-20T22:10:39.615Z,81.10
2018-09-20T22:13:08.644Z,80.80
2018-09-20T22:15:37.296Z,81.10
2018-09-20T22:18:06.192Z,81.50
2018-09-20T22:20:34.627Z,81.10
2018-09-20T22:23:03.365Z,81.30
2018-09-20T22:25:32.893Z,81.30
2018-09-20T22:28:02.774Z,81.80
2018-09-20T22:30:31.536Z,83.10
2018-09-20T22:32:59.963Z,83.40
2018-09-20T22:35:28.577Z,83.40
2018-09-20T22:37:57.041Z,83.50
2018-09-20T22:40:25.516Z,83.90
2018-09-20T22:42:54.628Z,84.50
2018-09-20T22:45:23.898Z,84.60
2018-09-20T22:47:52.770Z,85.20
2018-09-20T22:50:21.160Z,85.20
2018-09-20T22:52:49.592Z,85.80
2018-09-20T22:55:18.304Z,86.20
2018-09-20T22:57:46.692Z,85.70
2018-09-20T23:00:19.880Z,85.50
2018-09-20T23:02:48.432Z,85.40
2018-09-20T23:05:17.270Z,84.90
2018-09-20T23:07:45.928Z,84.50
2018-09-20T23:10:18.184Z,84.40
2018-09-20T23:12:47.196Z,85.40
2018-09-20T23:15:17.593Z,85.40
2018-09-20T23:17:46.825Z,85.50
2018-09-20T23:20:15.620Z,85.90
2018-09-20T23:22:44.612Z,85.10
2018-09-20T23:25:16.537Z,85.10
2018-09-20T23:27:44.991Z,84.40
2018-09-20T23:30:13.957Z,84.60
2018-09-20T23:32:42.417Z,83.80
2018-09-20T23:35:10.831Z,84.20
2018-09-20T23:37:39.196Z,84.60
2018-09-20T23:40:07.669Z,84.00
2018-09-20T23:42:36.060Z,83.70
2018-09-20T23:45:04.493Z,84.00
2018-09-20T23:50:09.996Z,84.80
2018-09-20T23:52:38.540Z,85.60
2018-09-20T23:55:07.013Z,85.40
2018-09-20T23:57:35.404Z,86.50
